createdAt,value
2019-05-03T00:01:02.410Z,20.37
2019-05-03T00:03:32.009Z,20.70
2019-05-03T00:06:06.955Z,18.17
2019-05-03T00:08:36.834Z,21.23
2019-05-03T00:11:08.127Z,17.93
2019-05-03T00:13:37.828Z,17.73
2019-05-03T00:16:18.325Z,21.73
2019-05-03T00:18:47.365Z,20.13
2019-05-03T00:21:18.498Z,20.13
2019-05-03T00:23:49.369Z,20.37
2019-05-03T00:26:22.497Z,19.80
2019-05-03T00:28:52.381Z,22.47
2019-05-03T00:31:22.602Z,20.80
2019-05-03T00:33:53.097Z,19.40
2019-05-03T00:36:30.094Z,18.77
2019-05-03T00:39:04.324Z,18.50
2019-05-03T00:41:34.300Z,17.07
2019-05-03T00:44:03.896Z,20.77
2019-05-03T00:46:34.185Z,17.20
2019-05-03T00:49:05.342Z,20.73
2019-05-03T00:51:36.234Z,20.57
2019-05-03T00:54:07.032Z,22.80
2019-05-03T00:56:36.986Z,19.40
2019-05-03T00:59:05.957Z,20.13
2019-05-03T01:04:26.154Z,19.00
2019-05-03T01:06:54.857Z,17.53
2019-05-03T01:09:25.591Z,17.90
2019-05-03T01:11:55.196Z,25.10
2019-05-03T01:14:25.010Z,19.13
2019-05-03T01:16:54.483Z,21.50
2019-05-03T01:19:23.379Z,18.57
2019-05-03T01:21:52.084Z,21.87
2019-05-03T01:24:21.736Z,21.00
2019-05-03T01:26:52.592Z,26.27
2019-05-03T01:29:22.919Z,20.90
2019-05-03T01:31:52.789Z,26.40
2019-05-03T01:34:22.480Z,21.53
2019-05-03T01:36:51.875Z,22.20
2019-05-03T01:39:22.219Z,21.50
2019-05-03T01:41:51.932Z,20.33
2019-05-03T01:44:21.983Z,24.60
2019-05-03T01:46:52.507Z,24.90
2019-05-03T01:49:25.996Z,20.93
2019-05-03T01:51:56.279Z,21.57
2019-05-03T01:54:25.163Z,19.60
2019-05-03T01:56:58.740Z,24.47
2019-05-03T01:59:24.483Z,20.27
2019-05-03T02:01:54.792Z,21.37
2019-05-03T02:04:34.872Z,20.40
2019-05-03T02:07:04.527Z,19.93
2019-05-03T02:09:33.314Z,21.70
2019-05-03T02:12:07.013Z,21.07
2019-05-03T02:14:36.647Z,21.23
2019-05-03T02:17:06.172Z,22.30
2019-05-03T02:19:34.960Z,21.80
2019-05-03T02:22:03.789Z,20.47
2019-05-03T02:24:34.180Z,22.07
2019-05-03T02:27:07.144Z,22.60
2019-05-03T02:29:36.740Z,19.17
2019-05-03T02:32:07.205Z,20.10
2019-05-03T02:34:38.683Z,22.00
2019-05-03T02:37:07.952Z,18.53
2019-05-03T02:39:38.322Z,22.60
2019-05-03T02:42:11.742Z,24.57
2019-05-03T02:44:40.596Z,22.63
2019-05-03T02:47:28.050Z,18.90
2019-05-03T02:50:00.918Z,22.73
2019-05-03T02:52:36.954Z,23.30
2019-05-03T02:55:10.855Z,23.20
2019-05-03T02:57:39.714Z,22.77
2019-05-03T03:00:11.103Z,24.43
2019-05-03T03:02:40.770Z,25.40
2019-05-03T03:05:10.297Z,27.53
2019-05-03T03:07:45.901Z,22.97
2019-05-03T03:10:12.051Z,25.67
2019-05-03T03:12:46.220Z,25.80
2019-05-03T03:15:16.113Z,21.77
2019-05-03T03:17:46.592Z,25.70
2019-05-03T03:20:16.482Z,25.67
2019-05-03T03:22:46.385Z,21.43
2019-05-03T03:25:18.217Z,21.97
2019-05-03T03:27:51.726Z,24.93
2019-05-03T03:30:39.839Z,26.63
2019-05-03T03:33:11.604Z,23.33
2019-05-03T03:35:42.584Z,23.77
2019-05-03T03:38:11.425Z,25.87
2019-05-03T03:40:40.691Z,23.93
2019-05-03T03:43:11.664Z,23.40
2019-05-03T03:45:41.003Z,25.07
2019-05-03T03:48:11.486Z,24.80
2019-05-03T03:50:41.857Z,30.03
2019-05-03T03:53:15.458Z,29.73
2019-05-03T03:55:47.001Z,27.50
2019-05-03T03:58:23.007Z,25.27
2019-05-03T04:00:49.743Z,22.93
2019-05-03T04:03:19.671Z,26.97
2019-05-03T04:05:48.465Z,25.17
2019-05-03T04:08:18.329Z,28.67
2019-05-03T04:10:48.120Z,28.03
2019-05-03T04:13:19.185Z,27.90
2019-05-03T04:15:59.136Z,24.63
2019-05-03T04:18:30.340Z,30.00
2019-05-03T04:20:59.541Z,27.93
2019-05-03T04:23:30.245Z,30.10
2019-05-03T04:25:59.135Z,23.47
2019-05-03T04:28:28.593Z,31.03
2019-05-03T04:30:57.658Z,29.77
2019-05-03T04:33:27.056Z,27.93
2019-05-03T04:35:56.071Z,25.80
2019-05-03T04:38:28.041Z,28.27
2019-05-03T04:41:00.286Z,28.40
2019-05-03T04:43:30.625Z,28.83
2019-05-03T04:46:06.540Z,24.97
2019-05-03T04:48:35.772Z,29.47
2019-05-03T04:51:06.320Z,24.80
2019-05-03T04:53:39.881Z,27.57
2019-05-03T04:56:08.633Z,24.40
2019-05-03T04:58:37.525Z,23.80
2019-05-03T05:01:08.900Z,22.47
2019-05-03T05:03:39.568Z,25.20
2019-05-03T05:06:08.322Z,23.37
2019-05-03T05:08:37.182Z,21.97
2019-05-03T05:11:10.390Z,19.23
2019-05-03T05:13:41.553Z,22.87
2019-05-03T05:16:10.276Z,20.97
2019-05-03T05:18:45.692Z,20.63
2019-05-03T05:21:16.306Z,23.93
2019-05-03T05:23:51.702Z,22.60
2019-05-03T05:26:21.904Z,22.27
2019-05-03T05:28:54.980Z,20.63
2019-05-03T05:31:25.473Z,20.27
2019-05-03T05:33:55.963Z,19.90
2019-05-03T05:36:26.371Z,22.67
2019-05-03T05:38:55.391Z,19.57
2019-05-03T05:41:24.550Z,16.40
2019-05-03T05:43:54.972Z,21.87
2019-05-03T05:46:25.464Z,17.33
2019-05-03T05:48:55.619Z,19.57
2019-05-03T05:51:24.979Z,16.03
2019-05-03T05:53:54.937Z,20.13
2019-05-03T05:56:31.538Z,17.50
2019-05-03T05:59:01.883Z,16.10
2019-05-03T06:01:32.247Z,16.83
2019-05-03T06:04:01.983Z,16.67
2019-05-03T06:06:37.255Z,16.40
2019-05-03T06:09:18.783Z,14.53
2019-05-03T06:11:53.122Z,15.67
2019-05-03T06:14:26.748Z,16.57
2019-05-03T06:16:57.269Z,15.23
2019-05-03T06:19:34.567Z,10.70
2019-05-03T06:22:05.152Z,12.20
2019-05-03T06:24:35.850Z,9.93
2019-05-03T06:27:24.528Z,9.50
2019-05-03T06:29:58.360Z,9.47
2019-05-03T06:32:34.702Z,5.07
2019-05-03T06:35:05.071Z,5.70
2019-05-03T06:37:37.153Z,10.87
2019-05-03T06:40:07.397Z,6.27
2019-05-03T06:42:51.535Z,5.90
2019-05-03T06:45:11.848Z,5.83
2019-05-03T06:47:46.018Z,7.23
2019-05-03T06:50:11.255Z,7.00
2019-05-03T06:52:39.986Z,11.60
2019-05-03T06:55:10.727Z,9.87
2019-05-03T06:57:45.598Z,5.47
2019-05-03T07:00:17.871Z,8.73
2019-05-03T07:02:54.559Z,5.23
2019-05-03T07:05:32.646Z,6.97
2019-05-03T07:08:19.281Z,4.03
2019-05-03T07:10:49.882Z,7.77
2019-05-03T07:13:18.673Z,6.63
2019-05-03T07:15:47.344Z,5.43
2019-05-03T07:18:17.421Z,4.27
2019-05-03T07:20:54.365Z,6.00
2019-05-03T07:23:24.357Z,7.67
2019-05-03T07:25:55.165Z,10.87
2019-05-03T07:28:25.585Z,5.70
2019-05-03T07:30:55.740Z,5.03
2019-05-03T07:33:26.163Z,6.77
2019-05-03T07:35:54.872Z,7.83
2019-05-03T07:38:28.235Z,7.90
2019-05-03T07:40:57.124Z,6.90
2019-05-03T07:43:26.587Z,7.90
2019-05-03T07:45:55.397Z,7.10
2019-05-03T07:48:26.861Z,13.10
2019-05-03T07:50:55.647Z,5.07
2019-05-03T07:53:25.414Z,6.53
2019-05-03T07:55:55.740Z,6.97
2019-05-03T07:58:35.150Z,10.97
2019-05-03T08:01:10.143Z,4.87
2019-05-03T08:03:39.266Z,15.07
2019-05-03T08:06:08.247Z,6.30
2019-05-03T08:08:51.462Z,5.47
2019-05-03T08:11:20.556Z,5.87
2019-05-03T08:13:55.277Z,7.23
2019-05-03T08:16:25.052Z,6.10
2019-05-03T08:18:55.834Z,7.80
2019-05-03T08:21:25.260Z,7.53
2019-05-03T08:23:56.877Z,5.90
2019-05-03T08:26:29.206Z,7.53
2019-05-03T08:29:12.672Z,6.20
2019-05-03T08:31:39.237Z,5.23
2019-05-03T08:34:12.625Z,7.37
2019-05-03T08:37:00.444Z,9.73
2019-05-03T08:39:29.283Z,7.40
2019-05-03T08:42:04.828Z,6.97
2019-05-03T08:44:35.480Z,6.73
2019-05-03T08:47:08.452Z,6.90
2019-05-03T08:49:40.315Z,6.03
2019-05-03T08:52:10.340Z,5.93
2019-05-03T08:54:39.155Z,6.53
2019-05-03T08:57:09.062Z,7.93
2019-05-03T08:59:37.711Z,8.23
2019-05-03T09:02:17.790Z,6.03
2019-05-03T09:04:43.248Z,5.57
2019-05-03T09:07:14.806Z,14.00
2019-05-03T09:09:47.809Z,5.47
2019-05-03T09:12:18.240Z,7.83
2019-05-03T09:14:49.780Z,8.13
2019-05-03T09:17:18.439Z,4.37
2019-05-03T09:19:48.853Z,6.90
2019-05-03T09:22:18.075Z,10.63
2019-05-03T09:24:47.999Z,6.63
2019-05-03T09:27:17.608Z,3.43
2019-05-03T09:29:46.995Z,11.20
2019-05-03T09:32:19.363Z,8.73
2019-05-03T09:34:48.084Z,8.77
2019-05-03T09:37:19.887Z,8.20
2019-05-03T09:39:50.289Z,5.77
2019-05-03T09:42:19.241Z,11.70
2019-05-03T09:44:57.486Z,10.60
2019-05-03T09:47:28.322Z,6.47
2019-05-03T09:50:02.116Z,7.67
2019-05-03T09:52:32.194Z,5.93
2019-05-03T09:55:21.347Z,13.30
2019-05-03T09:57:52.091Z,11.03
2019-05-03T10:00:24.539Z,7.27
2019-05-03T10:02:54.844Z,10.90
2019-05-03T10:05:26.096Z,7.43
2019-05-03T10:07:58.597Z,5.63
2019-05-03T10:10:30.935Z,9.03
2019-05-03T10:13:00.235Z,6.67
2019-05-03T10:15:47.494Z,12.57
2019-05-03T10:18:18.730Z,7.60
2019-05-03T10:20:48.502Z,5.73
2019-05-03T10:23:45.376Z,6.77
2019-05-03T10:26:17.036Z,8.30
2019-05-03T10:28:46.012Z,12.13
2019-05-03T10:31:21.275Z,5.10
2019-05-03T10:33:57.585Z,8.87
2019-05-03T10:36:27.475Z,4.77
2019-05-03T10:39:01.545Z,7.50
2019-05-03T10:41:30.778Z,6.97
2019-05-03T10:43:59.520Z,9.97
2019-05-03T10:46:30.525Z,5.97
2019-05-03T10:48:59.206Z,5.93
2019-05-03T10:51:29.651Z,6.70
2019-05-03T10:54:00.048Z,6.37
2019-05-03T10:56:37.355Z,4.83
2019-05-03T10:59:08.089Z,6.23
2019-05-03T11:01:38.889Z,12.03
2019-05-03T11:04:07.654Z,9.40
2019-05-03T11:06:36.333Z,8.33
2019-05-03T11:09:06.993Z,4.37
2019-05-03T11:11:35.814Z,5.10
2019-05-03T11:14:05.484Z,6.43
2019-05-03T11:16:36.507Z,7.30
2019-05-03T11:19:05.610Z,7.23
2019-05-03T11:21:34.869Z,5.37
2019-05-03T11:24:05.399Z,10.17
2019-05-03T11:26:37.312Z,4.30
2019-05-03T11:29:07.439Z,10.10
2019-05-03T11:31:47.391Z,7.07
2019-05-03T11:34:22.368Z,6.40
2019-05-03T11:37:08.767Z,7.83
2019-05-03T11:39:38.021Z,3.27
2019-05-03T11:42:12.683Z,2.80
2019-05-03T11:44:38.635Z,4.73
2019-05-03T11:47:09.491Z,3.93
2019-05-03T11:49:38.785Z,7.83
2019-05-03T11:52:10.447Z,4.73
2019-05-03T11:54:45.323Z,6.60
2019-05-03T11:57:26.610Z,5.90
2019-05-03T11:59:58.916Z,9.63
2019-05-03T12:02:35.200Z,3.53
2019-05-03T12:05:11.378Z,3.47
2019-05-03T12:07:42.001Z,6.20
2019-05-03T12:10:26.610Z,4.17
2019-05-03T12:12:55.743Z,4.60
2019-05-03T12:15:24.759Z,4.97
2019-05-03T12:17:59.203Z,5.90
2019-05-03T12:20:29.897Z,9.13
2019-05-03T12:23:01.381Z,7.17
2019-05-03T12:25:31.252Z,3.30
2019-05-03T12:28:00.393Z,4.10
2019-05-03T12:30:29.216Z,7.67
2019-05-03T12:32:58.618Z,6.53
2019-05-03T12:35:27.404Z,5.90
2019-05-03T12:37:57.516Z,5.57
2019-05-03T12:40:26.853Z,4.03
2019-05-03T12:43:00.684Z,5.97
2019-05-03T12:45:30.458Z,6.10
2019-05-03T12:48:06.635Z,6.23
2019-05-03T12:50:35.334Z,4.57
2019-05-03T12:53:05.292Z,6.70
2019-05-03T12:55:35.574Z,5.57
2019-05-03T12:58:12.371Z,5.37
2019-05-03T13:00:38.671Z,5.83
2019-05-03T13:03:12.706Z,5.17
2019-05-03T13:05:44.971Z,4.07
2019-05-03T13:08:35.407Z,4.60
2019-05-03T13:11:05.296Z,5.87
2019-05-03T13:13:35.816Z,3.30
2019-05-03T13:16:08.233Z,3.40
2019-05-03T13:18:39.469Z,4.50
2019-05-03T13:21:08.487Z,4.23
2019-05-03T13:23:37.277Z,7.33
2019-05-03T13:26:08.679Z,4.10
2019-05-03T13:28:37.502Z,10.20
2019-05-03T13:31:09.092Z,3.37
2019-05-03T13:33:40.920Z,5.83
2019-05-03T13:36:10.610Z,4.97
2019-05-03T13:38:41.183Z,4.40
2019-05-03T13:41:09.970Z,3.83
2019-05-03T13:43:42.541Z,8.13
2019-05-03T13:46:11.319Z,4.63
2019-05-03T13:48:46.645Z,9.07
2019-05-03T13:51:15.984Z,4.67
2019-05-03T13:53:45.790Z,5.00
2019-05-03T13:56:17.401Z,6.93
2019-05-03T13:58:48.229Z,4.67
2019-05-03T14:01:17.074Z,6.87
2019-05-03T14:03:46.120Z,6.57
2019-05-03T14:06:29.668Z,4.13
2019-05-03T14:08:59.558Z,7.07
2019-05-03T14:11:29.008Z,8.13
2019-05-03T14:13:57.669Z,7.33
2019-05-03T14:16:26.977Z,5.27
2019-05-03T14:18:57.370Z,4.83
2019-05-03T14:21:29.149Z,4.93
2019-05-03T14:24:15.796Z,5.10
2019-05-03T14:26:44.945Z,3.83
2019-05-03T14:29:15.616Z,5.00
2019-05-03T14:31:50.536Z,7.20
2019-05-03T14:34:19.227Z,4.30
2019-05-03T14:36:48.142Z,2.23
2019-05-03T14:39:18.256Z,13.43
2019-05-03T14:41:48.825Z,2.13
2019-05-03T14:44:18.359Z,4.27
2019-05-03T14:46:58.831Z,3.00
2019-05-03T14:49:25.427Z,4.30
2019-05-03T14:51:56.797Z,4.77
2019-05-03T14:54:27.283Z,5.20
2019-05-03T14:57:14.531Z,4.10
2019-05-03T14:59:47.666Z,3.50
2019-05-03T15:02:24.464Z,6.10
2019-05-03T15:04:55.959Z,3.50
2019-05-03T15:07:25.540Z,4.00
2019-05-03T15:09:58.138Z,2.17
2019-05-03T15:12:28.572Z,4.87
2019-05-03T15:14:58.634Z,5.90
2019-05-03T15:17:28.063Z,5.53
2019-05-03T15:20:00.962Z,2.33
2019-05-03T15:22:29.800Z,4.13
2019-05-03T15:25:00.143Z,5.10
2019-05-03T15:27:29.031Z,4.67
2019-05-03T15:30:00.401Z,5.23
2019-05-03T15:32:29.133Z,4.67
2019-05-03T15:34:57.844Z,6.13
2019-05-03T15:37:27.652Z,2.40
2019-05-03T15:39:57.906Z,4.70
2019-05-03T15:42:30.263Z,4.57
2019-05-03T15:45:00.575Z,7.33
2019-05-03T15:47:33.421Z,2.87
2019-05-03T15:50:02.079Z,5.80
2019-05-03T15:52:35.274Z,6.07
2019-05-03T15:55:07.494Z,4.47
2019-05-03T15:57:36.667Z,4.97
2019-05-03T16:00:10.743Z,7.87
2019-05-03T16:02:39.460Z,4.00
2019-05-03T16:05:15.603Z,6.07
2019-05-03T16:07:45.518Z,5.17
2019-05-03T16:10:16.798Z,2.67
2019-05-03T16:12:46.456Z,7.77
2019-05-03T16:15:20.054Z,3.83
2019-05-03T16:17:51.713Z,6.77
2019-05-03T16:20:21.695Z,4.73
2019-05-03T16:22:55.007Z,6.83
2019-05-03T16:25:25.245Z,5.07
2019-05-03T16:27:59.667Z,4.53
2019-05-03T16:30:36.375Z,4.40
2019-05-03T16:33:04.810Z,4.53
2019-05-03T16:35:46.717Z,3.47
2019-05-03T16:38:15.754Z,4.47
2019-05-03T16:40:45.440Z,5.97
2019-05-03T16:43:17.453Z,5.40
2019-05-03T16:45:48.499Z,8.23
2019-05-03T16:48:19.954Z,5.17
2019-05-03T16:50:48.691Z,2.33
2019-05-03T16:53:20.965Z,6.97
2019-05-03T16:55:54.803Z,6.57
2019-05-03T16:58:25.127Z,3.97
2019-05-03T17:00:55.323Z,3.13
2019-05-03T17:03:38.148Z,4.27
2019-05-03T17:05:59.053Z,4.70
2019-05-03T17:08:45.988Z,3.87
2019-05-03T17:11:20.505Z,4.43
2019-05-03T17:13:55.370Z,5.13
2019-05-03T17:16:22.517Z,6.63
2019-05-03T17:18:51.219Z,7.70
2019-05-03T17:21:34.965Z,4.27
2019-05-03T17:24:04.357Z,7.30
2019-05-03T17:26:35.125Z,7.87
2019-05-03T17:29:04.997Z,3.87
2019-05-03T17:31:35.214Z,8.07
2019-05-03T17:34:07.976Z,3.87
2019-05-03T17:36:40.268Z,8.83
2019-05-03T17:39:11.867Z,5.73
2019-05-03T17:42:00.248Z,6.70
2019-05-03T17:44:30.841Z,3.90
2019-05-03T17:46:59.614Z,6.07
2019-05-03T17:49:28.631Z,5.60
2019-05-03T17:52:06.184Z,2.93
2019-05-03T17:54:40.047Z,4.30
2019-05-03T17:57:15.620Z,6.37
2019-05-03T17:59:59.991Z,3.73
2019-05-03T18:02:40.138Z,4.23
2019-05-03T18:05:27.474Z,8.37
2019-05-03T18:08:11.545Z,6.07
2019-05-03T18:10:42.598Z,5.13
2019-05-03T18:13:12.074Z,4.50
2019-05-03T18:15:41.808Z,5.97
2019-05-03T18:18:11.547Z,8.37
2019-05-03T18:20:41.964Z,9.03
2019-05-03T18:23:11.565Z,5.63
2019-05-03T18:25:41.368Z,7.83
2019-05-03T18:28:10.167Z,8.60
2019-05-03T18:30:39.091Z,6.07
2019-05-03T18:33:07.971Z,7.43
2019-05-03T18:35:38.926Z,7.77
2019-05-03T18:38:09.027Z,7.67
2019-05-03T18:40:38.415Z,7.47
2019-05-03T18:43:11.675Z,7.83
2019-05-03T18:45:45.386Z,10.77
2019-05-03T18:48:14.411Z,7.63
2019-05-03T18:50:45.667Z,6.77
2019-05-03T18:53:15.294Z,8.33
2019-05-03T18:55:44.999Z,6.57
2019-05-03T18:58:14.889Z,5.47
2019-05-03T19:00:45.463Z,6.80
2019-05-03T19:03:15.685Z,7.33
2019-05-03T19:05:46.800Z,6.07
2019-05-03T19:08:35.138Z,6.80
2019-05-03T19:11:26.024Z,10.17
2019-05-03T19:14:01.443Z,9.23
2019-05-03T19:16:45.550Z,7.37
2019-05-03T19:19:15.958Z,4.00
2019-05-03T19:21:47.262Z,6.33
2019-05-03T19:24:16.773Z,8.53
2019-05-03T19:26:45.517Z,5.33
2019-05-03T19:29:22.236Z,11.87
2019-05-03T19:31:47.603Z,2.77
2019-05-03T19:34:18.667Z,8.63
2019-05-03T19:36:48.652Z,6.83
2019-05-03T19:39:19.027Z,4.67
2019-05-03T19:41:49.350Z,6.33
2019-05-03T19:44:19.471Z,8.70
2019-05-03T19:46:48.155Z,10.13
2019-05-03T19:49:20.224Z,8.30
2019-05-03T19:51:49.053Z,7.17
2019-05-03T19:54:17.812Z,6.87
2019-05-03T19:56:47.809Z,6.67
2019-05-03T19:59:34.883Z,5.97
2019-05-03T20:02:05.637Z,6.60
2019-05-03T20:04:42.428Z,8.90
2019-05-03T20:07:25.186Z,7.87
2019-05-03T20:09:56.813Z,7.93
2019-05-03T20:12:26.088Z,7.57
2019-05-03T20:15:00.140Z,9.50
2019-05-03T20:17:30.466Z,9.03
2019-05-03T20:19:59.680Z,7.93
2019-05-03T20:22:31.364Z,7.83
2019-05-03T20:25:01.545Z,7.60
2019-05-03T20:27:31.332Z,9.87
2019-05-03T20:30:01.853Z,9.33
2019-05-03T20:32:34.498Z,8.07
2019-05-03T20:35:16.229Z,8.77
2019-05-03T20:37:38.045Z,6.40
2019-05-03T20:40:08.174Z,9.93
2019-05-03T20:42:58.212Z,9.30
2019-05-03T20:45:46.783Z,6.77
2019-05-03T20:48:28.937Z,7.83
2019-05-03T20:50:59.346Z,6.20
2019-05-03T20:53:29.277Z,13.90
2019-05-03T20:55:59.241Z,15.80
2019-05-03T20:58:29.492Z,11.07
2019-05-03T21:01:00.544Z,14.33
2019-05-03T21:03:30.881Z,9.10
2019-05-03T21:06:02.324Z,11.40
2019-05-03T21:08:31.279Z,9.17
2019-05-03T21:11:00.185Z,11.83
2019-05-03T21:13:39.906Z,9.07
2019-05-03T21:16:07.796Z,11.00
2019-05-03T21:18:41.407Z,12.07
2019-05-03T21:21:21.928Z,8.07
2019-05-03T21:24:08.270Z,8.67
2019-05-03T21:26:45.163Z,10.23
2019-05-03T21:29:19.724Z,11.10
2019-05-03T21:31:49.169Z,8.50
2019-05-03T21:37:07.710Z,12.40
2019-05-03T21:39:36.433Z,8.70
2019-05-03T21:42:08.856Z,9.77
2019-05-03T21:44:37.529Z,11.50
2019-05-03T21:47:11.032Z,11.27
2019-05-03T21:49:44.554Z,8.73
2019-05-03T21:52:14.807Z,8.27
2019-05-03T21:54:45.089Z,9.37
2019-05-03T21:57:16.622Z,9.13
2019-05-03T21:59:45.916Z,10.20
2019-05-03T22:02:16.192Z,9.93
2019-05-03T22:04:46.947Z,10.23
2019-05-03T22:07:15.784Z,10.67
2019-05-03T22:09:45.365Z,10.83
2019-05-03T22:12:14.472Z,9.83
2019-05-03T22:14:47.890Z,10.63
2019-05-03T22:17:26.662Z,8.50
2019-05-03T22:19:57.543Z,12.10
2019-05-03T22:22:34.195Z,14.53
2019-05-03T22:25:07.220Z,12.70
2019-05-03T22:27:40.556Z,13.83
2019-05-03T22:30:14.053Z,14.27
2019-05-03T22:32:40.108Z,9.57
2019-05-03T22:35:10.729Z,17.73
2019-05-03T22:37:40.857Z,14.23
2019-05-03T22:40:14.481Z,13.33
2019-05-03T22:42:44.660Z,12.63
2019-05-03T22:45:16.915Z,12.33
2019-05-03T22:47:46.159Z,15.63
2019-05-03T22:50:15.060Z,15.90
2019-05-03T22:52:45.858Z,12.67
2019-05-03T22:55:15.284Z,16.60
2019-05-03T22:57:44.065Z,13.73
2019-05-03T23:00:14.628Z,18.57
2019-05-03T23:02:45.545Z,14.43
2019-05-03T23:05:15.586Z,17.30
2019-05-03T23:07:46.875Z,16.27
2019-05-03T23:10:17.263Z,14.40
2019-05-03T23:12:48.543Z,19.43
2019-05-03T23:15:18.735Z,18.17
2019-05-03T23:17:47.474Z,18.17
2019-05-03T23:20:20.442Z,18.77
2019-05-03T23:22:51.607Z,15.73
2019-05-03T23:25:21.174Z,18.97
2019-05-03T23:27:55.145Z,13.40
2019-05-03T23:30:22.407Z,14.73
2019-05-03T23:32:54.712Z,18.07
2019-05-03T23:35:24.664Z,17.37
2019-05-03T23:37:54.400Z,19.63
2019-05-03T23:40:25.286Z,20.27
2019-05-03T23:42:58.957Z,16.43
2019-05-03T23:45:28.108Z,14.53
2019-05-03T23:47:59.148Z,15.03
2019-05-03T23:50:37.514Z,19.07
2019-05-03T23:53:06.193Z,18.90
2019-05-03T23:55:46.116Z,18.03
2019-05-03T23:58:17.817Z,14.93
